sensor_id;sensor_type;location;lat;lon;timestamp;temperature;humidity
20526;DHT22;10421;49.142;9.232;2023-08-12T00:00:41;24.90;98.60
20526;DHT22;10421;49.142;9.232;2023-08-12T00:03:08;24.90;98.70
20526;DHT22;10421;49.142;9.232;2023-08-12T00:05:35;24.90;98.80
20526;DHT22;10421;49.142;9.232;2023-08-12T00:08:02;24.80;98.90
20526;DHT22;10421;49.142;9.232;2023-08-12T00:10:29;24.80;98.90
20526;DHT22;10421;49.142;9.232;2023-08-12T00:12:56;24.80;99.00
20526;DHT22;10421;49.142;9.232;2023-08-12T00:15:23;24.80;99.00
20526;DHT22;10421;49.142;9.232;2023-08-12T00:17:51;24.80;99.10
20526;DHT22;10421;49.142;9.232;2023-08-12T00:20:18;24.80;99.10
20526;DHT22;10421;49.142;9.232;2023-08-12T00:22:45;24.70;99.10
20526;DHT22;10421;49.142;9.232;2023-08-12T00:25:12;24.70;99.20
20526;DHT22;10421;49.142;9.232;2023-08-12T00:27:38;24.60;99.30
20526;DHT22;10421;49.142;9.232;2023-08-12T00:30:06;24.60;99.40
20526;DHT22;10421;49.142;9.232;2023-08-12T00:32:33;24.70;99.60
20526;DHT22;10421;49.142;9.232;2023-08-12T00:35:01;24.60;99.80
20526;DHT22;10421;49.142;9.232;2023-08-12T00:37:28;24.60;99.60
20526;DHT22;10421;49.142;9.232;2023-08-12T00:39:55;24.60;99.60
20526;DHT22;10421;49.142;9.232;2023-08-12T00:42:21;24.60;99.70
20526;DHT22;10421;49.142;9.232;2023-08-12T00:44:48;24.60;99.90
20526;DHT22;10421;49.142;9.232;2023-08-12T00:47:15;24.50;99.80
20526;DHT22;10421;49.142;9.232;2023-08-12T00:49:42;24.50;99.90
20526;DHT22;10421;49.142;9.232;2023-08-12T00:52:12;24.50;99.90
20526;DHT22;10421;49.142;9.232;2023-08-12T00:54:39;24.40;99.90
20526;DHT22;10421;49.142;9.232;2023-08-12T00:57:06;24.40;99.90
20526;DHT22;10421;49.142;9.232;2023-08-12T00:59:35;24.40;99.90
20526;DHT22;10421;49.142;9.232;2023-08-12T01:02:03;24.40;99.90
20526;DHT22;10421;49.142;9.232;2023-08-12T01:04:30;24.30;99.90
20526;DHT22;10421;49.142;9.232;2023-08-12T01:06:56;24.30;99.90
20526;DHT22;10421;49.142;9.232;2023-08-12T01:09:24;24.30;99.90
20526;DHT22;10421;49.142;9.232;2023-08-12T01:11:59;24.30;99.90
20526;DHT22;10421;49.142;9.232;2023-08-12T01:14:33;24.30;99.90
20526;DHT22;10421;49.142;9.232;2023-08-12T01:17:02;24.30;99.90
20526;DHT22;10421;49.142;9.232;2023-08-12T01:19:34;24.30;99.90
20526;DHT22;10421;49.142;9.232;2023-08-12T01:22:02;24.20;99.90
20526;DHT22;10421;49.142;9.232;2023-08-12T01:24:35;24.20;99.90
20526;DHT22;10421;49.142;9.232;2023-08-12T01:27:02;24.20;99.90
20526;DHT22;10421;49.142;9.232;2023-08-12T01:29:30;24.10;99.90
20526;DHT22;10421;49.142;9.232;2023-08-12T01:32:01;24.10;99.90
20526;DHT22;10421;49.142;9.232;2023-08-12T01:34:38;24.10;99.90
20526;DHT22;10421;49.142;9.232;2023-08-12T01:37:09;24.10;99.90
20526;DHT22;10421;49.142;9.232;2023-08-12T01:39:38;24.10;99.90
20526;DHT22;10421;49.142;9.232;2023-08-12T01:42:06;24.10;99.90
20526;DHT22;10421;49.142;9.232;2023-08-12T01:44:33;24.10;99.90
20526;DHT22;10421;49.142;9.232;2023-08-12T01:47:00;24.10;99.90
20526;DHT22;10421;49.142;9.232;2023-08-12T01:49:28;24.10;99.90
20526;DHT22;10421;49.142;9.232;2023-08-12T01:51:55;24.10;99.90
20526;DHT22;10421;49.142;9.232;2023-08-12T01:54:21;24.10;99.90
20526;DHT22;10421;49.142;9.232;2023-08-12T01:56:49;24.00;99.90
20526;DHT22;10421;49.142;9.232;2023-08-12T01:59:16;24.00;99.90
20526;DHT22;10421;49.142;9.232;2023-08-12T02:01:43;24.00;99.90
20526;DHT22;10421;49.142;9.232;2023-08-12T02:04:10;24.00;99.90
20526;DHT22;10421;49.142;9.232;2023-08-12T02:06:36;24.00;99.90
20526;DHT22;10421;49.142;9.232;2023-08-12T02:09:03;24.00;99.90
20526;DHT22;10421;49.142;9.232;2023-08-12T02:11:30;23.90;99.90
20526;DHT22;10421;49.142;9.232;2023-08-12T02:13:58;23.90;99.90
20526;DHT22;10421;49.142;9.232;2023-08-12T02:16:25;23.90;99.90
20526;DHT22;10421;49.142;9.232;2023-08-12T02:18:51;23.90;99.90
20526;DHT22;10421;49.142;9.232;2023-08-12T02:21:18;23.90;99.90
20526;DHT22;10421;49.142;9.232;2023-08-12T02:23:45;23.90;99.90
20526;DHT22;10421;49.142;9.232;2023-08-12T02:26:11;23.80;99.90
20526;DHT22;10421;49.142;9.232;2023-08-12T02:28:38;23.80;99.90
20526;DHT22;10421;49.142;9.232;2023-08-12T02:31:06;23.80;99.90
20526;DHT22;10421;49.142;9.232;2023-08-12T02:33:33;23.80;99.90
20526;DHT22;10421;49.142;9.232;2023-08-12T02:36:00;23.80;99.90
20526;DHT22;10421;49.142;9.232;2023-08-12T02:38:28;23.80;99.90
20526;DHT22;10421;49.142;9.232;2023-08-12T02:40:55;23.80;99.90
20526;DHT22;10421;49.142;9.232;2023-08-12T02:43:22;23.80;99.90
20526;DHT22;10421;49.142;9.232;2023-08-12T02:45:49;23.70;99.90
20526;DHT22;10421;49.142;9.232;2023-08-12T02:48:17;23.70;99.90
20526;DHT22;10421;49.142;9.232;2023-08-12T02:50:44;23.70;99.90
20526;DHT22;10421;49.142;9.232;2023-08-12T02:53:13;23.70;99.90
20526;DHT22;10421;49.142;9.232;2023-08-12T02:55:39;23.60;99.90
20526;DHT22;10421;49.142;9.232;2023-08-12T02:58:06;23.60;99.90
20526;DHT22;10421;49.142;9.232;2023-08-12T03:00:33;23.60;99.90
20526;DHT22;10421;49.142;9.232;2023-08-12T03:03:00;23.60;99.90
20526;DHT22;10421;49.142;9.232;2023-08-12T03:05:28;23.60;99.90
20526;DHT22;10421;49.142;9.232;2023-08-12T03:07:55;23.60;99.90
20526;DHT22;10421;49.142;9.232;2023-08-12T03:10:22;23.60;99.90
20526;DHT22;10421;49.142;9.232;2023-08-12T03:12:50;23.70;99.90
20526;DHT22;10421;49.142;9.232;2023-08-12T03:15:20;23.70;99.90
20526;DHT22;10421;49.142;9.232;2023-08-12T03:17:47;23.60;99.90
20526;DHT22;10421;49.142;9.232;2023-08-12T03:20:15;23.60;99.90
20526;DHT22;10421;49.142;9.232;2023-08-12T03:22:43;23.60;99.90
20526;DHT22;10421;49.142;9.232;2023-08-12T03:25:10;23.60;99.90
20526;DHT22;10421;49.142;9.232;2023-08-12T03:27:40;23.70;99.90
20526;DHT22;10421;49.142;9.232;2023-08-12T03:30:08;23.60;99.90
20526;DHT22;10421;49.142;9.232;2023-08-12T03:32:35;23.60;99.90
20526;DHT22;10421;49.142;9.232;2023-08-12T03:35:02;23.60;99.90
20526;DHT22;10421;49.142;9.232;2023-08-12T03:37:29;23.60;99.90
20526;DHT22;10421;49.142;9.232;2023-08-12T03:39:57;23.70;99.90
20526;DHT22;10421;49.142;9.232;2023-08-12T03:42:24;23.60;99.90
20526;DHT22;10421;49.142;9.232;2023-08-12T03:44:50;23.70;99.90
20526;DHT22;10421;49.142;9.232;2023-08-12T03:47:17;23.60;99.90
20526;DHT22;10421;49.142;9.232;2023-08-12T03:49:47;23.60;99.90
20526;DHT22;10421;49.142;9.232;2023-08-12T03:52:14;23.70;99.90
20526;DHT22;10421;49.142;9.232;2023-08-12T03:54:41;23.70;99.90
20526;DHT22;10421;49.142;9.232;2023-08-12T03:57:09;23.70;99.90
20526;DHT22;10421;49.142;9.232;2023-08-12T03:59:35;23.70;99.90
20526;DHT22;10421;49.142;9.232;2023-08-12T04:02:02;23.70;99.90
20526;DHT22;10421;49.142;9.232;2023-08-12T04:04:30;23.70;99.90
20526;DHT22;10421;49.142;9.232;2023-08-12T04:06:57;23.80;99.90
20526;DHT22;10421;49.142;9.232;2023-08-12T04:09:23;23.80;99.90
20526;DHT22;10421;49.142;9.232;2023-08-12T04:11:51;23.80;99.90
20526;DHT22;10421;49.142;9.232;2023-08-12T04:14:19;23.80;99.90
20526;DHT22;10421;49.142;9.232;2023-08-12T04:16:45;23.80;99.90
20526;DHT22;10421;49.142;9.232;2023-08-12T04:19:12;23.70;99.90
20526;DHT22;10421;49.142;9.232;2023-08-12T04:21:39;23.70;99.90
20526;DHT22;10421;49.142;9.232;2023-08-12T04:24:07;23.70;99.90
20526;DHT22;10421;49.142;9.232;2023-08-12T04:26:34;23.70;99.90
20526;DHT22;10421;49.142;9.232;2023-08-12T04:29:00;23.70;99.90
20526;DHT22;10421;49.142;9.232;2023-08-12T04:31:28;23.70;99.90
20526;DHT22;10421;49.142;9.232;2023-08-12T04:33:55;23.60;99.90
20526;DHT22;10421;49.142;9.232;2023-08-12T04:36:22;23.60;99.90
20526;DHT22;10421;49.142;9.232;2023-08-12T04:38:49;23.50;99.90
20526;DHT22;10421;49.142;9.232;2023-08-12T04:41:15;23.50;99.90
20526;DHT22;10421;49.142;9.232;2023-08-12T04:43:42;23.50;99.90
20526;DHT22;10421;49.142;9.232;2023-08-12T04:46:09;23.50;99.90
20526;DHT22;10421;49.142;9.232;2023-08-12T04:48:37;23.50;99.90
20526;DHT22;10421;49.142;9.232;2023-08-12T04:51:03;23.60;99.90
20526;DHT22;10421;49.142;9.232;2023-08-12T04:53:31;23.60;99.90
20526;DHT22;10421;49.142;9.232;2023-08-12T04:55:57;23.50;99.90
20526;DHT22;10421;49.142;9.232;2023-08-12T04:58:24;23.60;99.90
20526;DHT22;10421;49.142;9.232;2023-08-12T05:00:51;23.60;99.90
20526;DHT22;10421;49.142;9.232;2023-08-12T05:03:18;23.60;99.90
20526;DHT22;10421;49.142;9.232;2023-08-12T05:05:50;23.60;99.90
20526;DHT22;10421;49.142;9.232;2023-08-12T05:08:17;23.60;99.90
20526;DHT22;10421;49.142;9.232;2023-08-12T05:10:44;23.60;99.90
20526;DHT22;10421;49.142;9.232;2023-08-12T05:13:13;23.60;99.90
20526;DHT22;10421;49.142;9.232;2023-08-12T05:15:39;23.50;99.90
20526;DHT22;10421;49.142;9.232;2023-08-12T05:18:06;23.60;99.90
20526;DHT22;10421;49.142;9.232;2023-08-12T05:20:33;23.60;99.90
20526;DHT22;10421;49.142;9.232;2023-08-12T05:23:01;23.60;99.90
20526;DHT22;10421;49.142;9.232;2023-08-12T05:25:28;23.70;99.90
20526;DHT22;10421;49.142;9.232;2023-08-12T05:27:54;23.70;99.90
20526;DHT22;10421;49.142;9.232;2023-08-12T05:30:21;23.70;99.90
20526;DHT22;10421;49.142;9.232;2023-08-12T05:32:48;23.70;99.90
20526;DHT22;10421;49.142;9.232;2023-08-12T05:35:15;23.70;99.90
20526;DHT22;10421;49.142;9.232;2023-08-12T05:37:41;23.70;99.90
20526;DHT22;10421;49.142;9.232;2023-08-12T05:40:10;23.70;99.90
20526;DHT22;10421;49.142;9.232;2023-08-12T05:42:37;23.80;99.90
20526;DHT22;10421;49.142;9.232;2023-08-12T05:45:04;23.80;99.90
20526;DHT22;10421;49.142;9.232;2023-08-12T05:47:31;23.80;99.90
20526;DHT22;10421;49.142;9.232;2023-08-12T05:49:58;23.80;99.90
20526;DHT22;10421;49.142;9.232;2023-08-12T05:52:25;23.80;99.90
20526;DHT22;10421;49.142;9.232;2023-08-12T05:54:52;23.90;99.90
20526;DHT22;10421;49.142;9.232;2023-08-12T05:57:20;23.90;99.90
20526;DHT22;10421;49.142;9.232;2023-08-12T05:59:47;23.90;99.90
20526;DHT22;10421;49.142;9.232;2023-08-12T06:02:14;24.00;99.90
20526;DHT22;10421;49.142;9.232;2023-08-12T06:04:41;24.00;99.90
20526;DHT22;10421;49.142;9.232;2023-08-12T06:07:07;24.00;99.90
20526;DHT22;10421;49.142;9.232;2023-08-12T06:09:34;24.00;99.90
20526;DHT22;10421;49.142;9.232;2023-08-12T06:12:01;24.10;99.90
20526;DHT22;10421;49.142;9.232;2023-08-12T06:14:29;24.20;99.90
20526;DHT22;10421;49.142;9.232;2023-08-12T06:16:55;24.20;99.90
20526;DHT22;10421;49.142;9.232;2023-08-12T06:19:22;24.30;99.90
20526;DHT22;10421;49.142;9.232;2023-08-12T06:21:49;24.30;99.90
20526;DHT22;10421;49.142;9.232;2023-08-12T06:24:16;24.30;99.90
20526;DHT22;10421;49.142;9.232;2023-08-12T06:26:43;24.40;99.90
20526;DHT22;10421;49.142;9.232;2023-08-12T06:29:09;24.40;99.90
20526;DHT22;10421;49.142;9.232;2023-08-12T06:31:37;24.40;99.90
20526;DHT22;10421;49.142;9.232;2023-08-12T06:34:04;24.40;99.90
20526;DHT22;10421;49.142;9.232;2023-08-12T06:36:31;24.40;99.90
20526;DHT22;10421;49.142;9.232;2023-08-12T06:38:57;24.40;99.90
20526;DHT22;10421;49.142;9.232;2023-08-12T06:41:24;24.40;99.90
20526;DHT22;10421;49.142;9.232;2023-08-12T06:43:51;24.50;99.90
20526;DHT22;10421;49.142;9.232;2023-08-12T06:46:18;24.50;99.90
20526;DHT22;10421;49.142;9.232;2023-08-12T06:48:46;24.60;99.90
20526;DHT22;10421;49.142;9.232;2023-08-12T06:51:12;24.50;99.90
20526;DHT22;10421;49.142;9.232;2023-08-12T06:53:40;24.60;99.90
20526;DHT22;10421;49.142;9.232;2023-08-12T06:56:06;24.60;99.90
20526;DHT22;10421;49.142;9.232;2023-08-12T06:58:33;24.70;99.90
20526;DHT22;10421;49.142;9.232;2023-08-12T07:01:00;24.80;99.90
20526;DHT22;10421;49.142;9.232;2023-08-12T07:03:27;24.80;99.90
20526;DHT22;10421;49.142;9.232;2023-08-12T07:05:55;25.00;99.90
20526;DHT22;10421;49.142;9.232;2023-08-12T07:08:22;25.00;99.90
20526;DHT22;10421;49.142;9.232;2023-08-12T07:10:48;25.10;99.90
20526;DHT22;10421;49.142;9.232;2023-08-12T07:13:15;25.20;99.90
20526;DHT22;10421;49.142;9.232;2023-08-12T07:15:42;25.30;99.90
20526;DHT22;10421;49.142;9.232;2023-08-12T07:18:09;25.40;99.90
20526;DHT22;10421;49.142;9.232;2023-08-12T07:20:35;25.50;99.90
20526;DHT22;10421;49.142;9.232;2023-08-12T07:23:03;25.60;99.90
20526;DHT22;10421;49.142;9.232;2023-08-12T07:25:30;25.60;99.90
20526;DHT22;10421;49.142;9.232;2023-08-12T07:27:58;25.60;99.90
20526;DHT22;10421;49.142;9.232;2023-08-12T07:30:25;25.60;99.90
20526;DHT22;10421;49.142;9.232;2023-08-12T07:32:51;25.70;99.90
20526;DHT22;10421;49.142;9.232;2023-08-12T07:35:18;25.80;99.90
20526;DHT22;10421;49.142;9.232;2023-08-12T07:37:45;25.80;99.90
20526;DHT22;10421;49.142;9.232;2023-08-12T07:40:13;25.80;99.90
20526;DHT22;10421;49.142;9.232;2023-08-12T07:42:40;25.80;99.90
20526;DHT22;10421;49.142;9.232;2023-08-12T07:45:08;25.90;99.90
20526;DHT22;10421;49.142;9.232;2023-08-12T07:47:35;25.90;99.90
20526;DHT22;10421;49.142;9.232;2023-08-12T07:50:02;25.90;99.90
20526;DHT22;10421;49.142;9.232;2023-08-12T07:52:29;25.90;99.90
20526;DHT22;10421;49.142;9.232;2023-08-12T07:54:55;26.00;99.90
20526;DHT22;10421;49.142;9.232;2023-08-12T07:57:23;26.20;99.90
20526;DHT22;10421;49.142;9.232;2023-08-12T07:59:50;26.20;99.90
20526;DHT22;10421;49.142;9.232;2023-08-12T08:02:17;26.30;99.90
20526;DHT22;10421;49.142;9.232;2023-08-12T08:04:44;26.40;99.90
20526;DHT22;10421;49.142;9.232;2023-08-12T08:07:14;26.40;99.90
20526;DHT22;10421;49.142;9.232;2023-08-12T08:09:41;26.40;99.90
20526;DHT22;10421;49.142;9.232;2023-08-12T08:12:08;26.40;99.90
20526;DHT22;10421;49.142;9.232;2023-08-12T08:14:37;26.50;99.90
20526;DHT22;10421;49.142;9.232;2023-08-12T08:17:03;26.50;99.90
20526;DHT22;10421;49.142;9.232;2023-08-12T08:19:30;26.50;99.90
20526;DHT22;10421;49.142;9.232;2023-08-12T08:21:57;26.50;99.90
20526;DHT22;10421;49.142;9.232;2023-08-12T08:24:24;26.60;99.90
20526;DHT22;10421;49.142;9.232;2023-08-12T08:26:51;26.70;99.90
20526;DHT22;10421;49.142;9.232;2023-08-12T08:29:17;26.70;99.90
20526;DHT22;10421;49.142;9.232;2023-08-12T08:31:45;26.80;99.90
20526;DHT22;10421;49.142;9.232;2023-08-12T08:34:12;26.80;99.90
20526;DHT22;10421;49.142;9.232;2023-08-12T08:36:39;26.90;99.90
20526;DHT22;10421;49.142;9.232;2023-08-12T08:39:06;27.00;99.90
20526;DHT22;10421;49.142;9.232;2023-08-12T08:41:37;27.10;99.90
20526;DHT22;10421;49.142;9.232;2023-08-12T08:44:06;27.10;99.90
20526;DHT22;10421;49.142;9.232;2023-08-12T08:46:33;27.20;99.90
20526;DHT22;10421;49.142;9.232;2023-08-12T08:49:02;27.30;99.90
20526;DHT22;10421;49.142;9.232;2023-08-12T08:51:31;27.40;99.80
20526;DHT22;10421;49.142;9.232;2023-08-12T08:53:58;27.50;99.70
20526;DHT22;10421;49.142;9.232;2023-08-12T08:56:24;27.50;99.30
20526;DHT22;10421;49.142;9.232;2023-08-12T08:58:52;27.40;99.10
20526;DHT22;10421;49.142;9.232;2023-08-12T09:01:20;27.50;99.20
20526;DHT22;10421;49.142;9.232;2023-08-12T09:03:48;27.50;99.20
20526;DHT22;10421;49.142;9.232;2023-08-12T09:06:17;27.50;99.10
20526;DHT22;10421;49.142;9.232;2023-08-12T09:08:45;27.60;99.20
20526;DHT22;10421;49.142;9.232;2023-08-12T09:11:17;27.80;99.00
20526;DHT22;10421;49.142;9.232;2023-08-12T09:13:44;28.00;98.90
20526;DHT22;10421;49.142;9.232;2023-08-12T09:16:11;28.20;98.70
20526;DHT22;10421;49.142;9.232;2023-08-12T09:18:40;28.50;98.60
20526;DHT22;10421;49.142;9.232;2023-08-12T09:21:07;28.80;98.40
20526;DHT22;10421;49.142;9.232;2023-08-12T09:23:37;29.00;98.10
20526;DHT22;10421;49.142;9.232;2023-08-12T09:26:13;29.20;97.60
20526;DHT22;10421;49.142;9.232;2023-08-12T09:28:40;29.40;97.40
20526;DHT22;10421;49.142;9.232;2023-08-12T09:31:07;29.40;96.80
20526;DHT22;10421;49.142;9.232;2023-08-12T09:33:39;29.40;96.60
20526;DHT22;10421;49.142;9.232;2023-08-12T09:36:06;29.50;96.60
20526;DHT22;10421;49.142;9.232;2023-08-12T09:38:32;29.50;96.40
20526;DHT22;10421;49.142;9.232;2023-08-12T09:41:01;29.60;96.10
20526;DHT22;10421;49.142;9.232;2023-08-12T09:43:28;29.70;96.00
20526;DHT22;10421;49.142;9.232;2023-08-12T09:45:56;29.90;95.90
20526;DHT22;10421;49.142;9.232;2023-08-12T09:48:25;30.00;95.30
20526;DHT22;10421;49.142;9.232;2023-08-12T09:50:52;30.00;94.90
20526;DHT22;10421;49.142;9.232;2023-08-12T09:53:19;30.10;94.50
20526;DHT22;10421;49.142;9.232;2023-08-12T09:55:47;30.10;93.90
20526;DHT22;10421;49.142;9.232;2023-08-12T09:58:17;30.10;93.90
20526;DHT22;10421;49.142;9.232;2023-08-12T10:00:45;30.20;93.90
20526;DHT22;10421;49.142;9.232;2023-08-12T10:03:12;30.30;93.80
20526;DHT22;10421;49.142;9.232;2023-08-12T10:05:41;30.30;93.80
20526;DHT22;10421;49.142;9.232;2023-08-12T10:08:08;30.30;93.50
20526;DHT22;10421;49.142;9.232;2023-08-12T10:10:35;30.40;93.60
20526;DHT22;10421;49.142;9.232;2023-08-12T10:13:03;30.60;93.40
20526;DHT22;10421;49.142;9.232;2023-08-12T10:15:34;30.90;93.30
20526;DHT22;10421;49.142;9.232;2023-08-12T10:18:01;31.20;93.00
20526;DHT22;10421;49.142;9.232;2023-08-12T10:20:30;31.40;92.60
20526;DHT22;10421;49.142;9.232;2023-08-12T10:22:59;31.60;91.80
20526;DHT22;10421;49.142;9.232;2023-08-12T10:25:31;31.60;91.80
20526;DHT22;10421;49.142;9.232;2023-08-12T10:27:58;31.60;91.70
20526;DHT22;10421;49.142;9.232;2023-08-12T10:30:28;31.70;91.90
20526;DHT22;10421;49.142;9.232;2023-08-12T10:32:58;31.80;92.00
20526;DHT22;10421;49.142;9.232;2023-08-12T10:35:40;31.90;91.90
20526;DHT22;10421;49.142;9.232;2023-08-12T10:38:07;31.90;91.70
20526;DHT22;10421;49.142;9.232;2023-08-12T10:40:34;32.10;91.60
20526;DHT22;10421;49.142;9.232;2023-08-12T10:43:01;32.10;91.30
20526;DHT22;10421;49.142;9.232;2023-08-12T10:45:41;32.20;91.00
20526;DHT22;10421;49.142;9.232;2023-08-12T10:48:18;32.30;90.80
20526;DHT22;10421;49.142;9.232;2023-08-12T10:50:48;32.50;90.30
20526;DHT22;10421;49.142;9.232;2023-08-12T10:53:23;32.60;90.00
20526;DHT22;10421;49.142;9.232;2023-08-12T10:55:55;32.70;89.60
20526;DHT22;10421;49.142;9.232;2023-08-12T10:58:27;32.80;89.30
20526;DHT22;10421;49.142;9.232;2023-08-12T11:00:54;33.00;89.30
20526;DHT22;10421;49.142;9.232;2023-08-12T11:03:24;33.10;89.10
20526;DHT22;10421;49.142;9.232;2023-08-12T11:05:51;33.10;87.60
20526;DHT22;10421;49.142;9.232;2023-08-12T11:08:24;33.10;87.10
20526;DHT22;10421;49.142;9.232;2023-08-12T11:10:54;33.30;87.00
20526;DHT22;10421;49.142;9.232;2023-08-12T11:13:22;33.40;86.60
20526;DHT22;10421;49.142;9.232;2023-08-12T11:15:49;33.60;86.30
20526;DHT22;10421;49.142;9.232;2023-08-12T11:18:18;33.60;85.00
20526;DHT22;10421;49.142;9.232;2023-08-12T11:20:47;33.60;83.60
20526;DHT22;10421;49.142;9.232;2023-08-12T11:23:14;33.60;82.00
20526;DHT22;10421;49.142;9.232;2023-08-12T11:25:44;33.40;80.20
20526;DHT22;10421;49.142;9.232;2023-08-12T11:28:11;33.40;81.80
20526;DHT22;10421;49.142;9.232;2023-08-12T11:30:41;33.30;82.70
20526;DHT22;10421;49.142;9.232;2023-08-12T11:33:09;33.30;83.40
20526;DHT22;10421;49.142;9.232;2023-08-12T11:35:36;33.30;83.10
20526;DHT22;10421;49.142;9.232;2023-08-12T11:38:05;33.30;82.50
20526;DHT22;10421;49.142;9.232;2023-08-12T11:40:33;33.40;82.80
20526;DHT22;10421;49.142;9.232;2023-08-12T11:43:01;33.60;83.00
20526;DHT22;10421;49.142;9.232;2023-08-12T11:45:28;33.80;83.10
20526;DHT22;10421;49.142;9.232;2023-08-12T11:47:55;34.00;82.80
20526;DHT22;10421;49.142;9.232;2023-08-12T11:50:23;34.20;82.80
20526;DHT22;10421;49.142;9.232;2023-08-12T11:52:51;34.40;82.70
20526;DHT22;10421;49.142;9.232;2023-08-12T11:55:20;34.30;81.90
20526;DHT22;10421;49.142;9.232;2023-08-12T11:57:47;34.20;82.20
20526;DHT22;10421;49.142;9.232;2023-08-12T12:00:14;34.00;82.70
20526;DHT22;10421;49.142;9.232;2023-08-12T12:02:46;33.70;83.40
20526;DHT22;10421;49.142;9.232;2023-08-12T12:05:14;33.50;82.60
20526;DHT22;10421;49.142;9.232;2023-08-12T12:07:41;33.30;82.40
20526;DHT22;10421;49.142;9.232;2023-08-12T12:10:12;33.10;82.30
20526;DHT22;10421;49.142;9.232;2023-08-12T12:12:41;32.90;82.00
20526;DHT22;10421;49.142;9.232;2023-08-12T12:15:08;32.70;82.60
20526;DHT22;10421;49.142;9.232;2023-08-12T12:17:39;32.50;83.60
20526;DHT22;10421;49.142;9.232;2023-08-12T12:20:07;32.20;84.20
20526;DHT22;10421;49.142;9.232;2023-08-12T12:22:36;32.00;85.80
20526;DHT22;10421;49.142;9.232;2023-08-12T12:25:06;31.90;86.80
20526;DHT22;10421;49.142;9.232;2023-08-12T12:27:33;31.80;89.40
20526;DHT22;10421;49.142;9.232;2023-08-12T12:30:01;31.70;91.30
20526;DHT22;10421;49.142;9.232;2023-08-12T12:32:28;31.50;91.30
20526;DHT22;10421;49.142;9.232;2023-08-12T12:34:55;31.40;91.20
20526;DHT22;10421;49.142;9.232;2023-08-12T12:37:22;31.30;91.40
20526;DHT22;10421;49.142;9.232;2023-08-12T12:39:48;31.10;91.90
20526;DHT22;10421;49.142;9.232;2023-08-12T12:42:15;31.00;92.20
20526;DHT22;10421;49.142;9.232;2023-08-12T12:44:42;31.00;92.50
20526;DHT22;10421;49.142;9.232;2023-08-12T12:47:10;30.90;92.80
20526;DHT22;10421;49.142;9.232;2023-08-12T12:49:37;30.90;93.10
20526;DHT22;10421;49.142;9.232;2023-08-12T12:52:04;30.80;92.70
20526;DHT22;10421;49.142;9.232;2023-08-12T12:54:31;30.80;92.50
20526;DHT22;10421;49.142;9.232;2023-08-12T12:56:58;30.70;92.70
20526;DHT22;10421;49.142;9.232;2023-08-12T12:59:25;30.70;92.80
20526;DHT22;10421;49.142;9.232;2023-08-12T13:01:51;30.60;93.00
20526;DHT22;10421;49.142;9.232;2023-08-12T13:04:20;30.40;93.40
20526;DHT22;10421;49.142;9.232;2023-08-12T13:06:46;30.30;93.90
20526;DHT22;10421;49.142;9.232;2023-08-12T13:09:13;30.20;94.30
20526;DHT22;10421;49.142;9.232;2023-08-12T13:11:40;30.10;94.60
20526;DHT22;10421;49.142;9.232;2023-08-12T13:14:06;30.20;94.90
20526;DHT22;10421;49.142;9.232;2023-08-12T13:16:33;30.10;95.10
20526;DHT22;10421;49.142;9.232;2023-08-12T13:19:00;30.10;95.60
20526;DHT22;10421;49.142;9.232;2023-08-12T13:21:28;30.30;95.70
20526;DHT22;10421;49.142;9.232;2023-08-12T13:23:55;30.40;95.30
20526;DHT22;10421;49.142;9.232;2023-08-12T13:26:21;30.50;95.40
20526;DHT22;10421;49.142;9.232;2023-08-12T13:28:48;30.60;95.70
20526;DHT22;10421;49.142;9.232;2023-08-12T13:31:15;30.50;95.50
20526;DHT22;10421;49.142;9.232;2023-08-12T13:33:42;30.40;95.60
20526;DHT22;10421;49.142;9.232;2023-08-12T13:36:08;30.40;95.50
20526;DHT22;10421;49.142;9.232;2023-08-12T13:38:36;30.20;95.70
20526;DHT22;10421;49.142;9.232;2023-08-12T13:41:03;30.10;95.90
20526;DHT22;10421;49.142;9.232;2023-08-12T13:43:30;29.90;96.30
20526;DHT22;10421;49.142;9.232;2023-08-12T13:45:57;29.70;96.70
20526;DHT22;10421;49.142;9.232;2023-08-12T13:48:23;29.60;97.20
20526;DHT22;10421;49.142;9.232;2023-08-12T13:50:50;29.40;97.50
20526;DHT22;10421;49.142;9.232;2023-08-12T13:53:17;29.30;97.90
20526;DHT22;10421;49.142;9.232;2023-08-12T13:55:46;29.30;98.20
20526;DHT22;10421;49.142;9.232;2023-08-12T13:58:12;29.20;98.70
20526;DHT22;10421;49.142;9.232;2023-08-12T14:00:39;29.30;98.40
20526;DHT22;10421;49.142;9.232;2023-08-12T14:03:06;29.30;98.50
20526;DHT22;10421;49.142;9.232;2023-08-12T14:05:33;29.40;98.00
20526;DHT22;10421;49.142;9.232;2023-08-12T14:07:59;29.50;97.70
20526;DHT22;10421;49.142;9.232;2023-08-12T14:10:26;29.50;97.90
20526;DHT22;10421;49.142;9.232;2023-08-12T14:12:54;29.60;97.60
20526;DHT22;10421;49.142;9.232;2023-08-12T14:15:21;29.60;97.90
20526;DHT22;10421;49.142;9.232;2023-08-12T14:17:47;29.60;97.50
20526;DHT22;10421;49.142;9.232;2023-08-12T14:20:14;29.70;97.80
20526;DHT22;10421;49.142;9.232;2023-08-12T14:22:41;29.80;97.60
20526;DHT22;10421;49.142;9.232;2023-08-12T14:25:09;30.00;97.50
20526;DHT22;10421;49.142;9.232;2023-08-12T14:27:36;30.10;97.20
20526;DHT22;10421;49.142;9.232;2023-08-12T14:30:05;30.20;97.00
20526;DHT22;10421;49.142;9.232;2023-08-12T14:32:32;30.40;97.00
20526;DHT22;10421;49.142;9.232;2023-08-12T14:34:59;30.60;97.00
20526;DHT22;10421;49.142;9.232;2023-08-12T14:37:26;30.60;95.90
20526;DHT22;10421;49.142;9.232;2023-08-12T14:39:53;30.60;95.80
20526;DHT22;10421;49.142;9.232;2023-08-12T14:42:20;30.60;96.10
20526;DHT22;10421;49.142;9.232;2023-08-12T14:44:47;30.70;95.90
20526;DHT22;10421;49.142;9.232;2023-08-12T14:47:15;30.80;95.40
20526;DHT22;10421;49.142;9.232;2023-08-12T14:49:42;31.00;94.60
20526;DHT22;10421;49.142;9.232;2023-08-12T14:52:15;31.10;94.60
20526;DHT22;10421;49.142;9.232;2023-08-12T14:54:42;31.10;94.30
20526;DHT22;10421;49.142;9.232;2023-08-12T14:57:09;31.10;94.40
20526;DHT22;10421;49.142;9.232;2023-08-12T14:59:36;31.10;94.50
20526;DHT22;10421;49.142;9.232;2023-08-12T15:02:03;31.00;94.60
20526;DHT22;10421;49.142;9.232;2023-08-12T15:04:32;31.00;94.50
20526;DHT22;10421;49.142;9.232;2023-08-12T15:06:59;30.80;94.30
20526;DHT22;10421;49.142;9.232;2023-08-12T15:09:26;30.70;94.10
20526;DHT22;10421;49.142;9.232;2023-08-12T15:11:52;30.60;94.60
20526;DHT22;10421;49.142;9.232;2023-08-12T15:14:19;30.60;94.30
20526;DHT22;10421;49.142;9.232;2023-08-12T15:16:46;30.40;94.60
20526;DHT22;10421;49.142;9.232;2023-08-12T15:19:13;30.30;95.00
20526;DHT22;10421;49.142;9.232;2023-08-12T15:21:41;30.20;95.10
20526;DHT22;10421;49.142;9.232;2023-08-12T15:24:07;30.10;95.10
20526;DHT22;10421;49.142;9.232;2023-08-12T15:26:35;30.10;95.00
20526;DHT22;10421;49.142;9.232;2023-08-12T15:29:02;30.10;95.10
20526;DHT22;10421;49.142;9.232;2023-08-12T15:31:29;30.10;95.20